Time;durP1;ratioP1;P1;durP2;ratioP2;P2;SDS_P1;SDS_P2;PMS_P1;PMS_P2;Temp;Humidity;BMP_temperature;BMP_pressure;BME280_temperature;BME280_humidity;BME280_pressure;Samples;Min_cycle;Max_cycle;Signal;HPM_P1;HPM_P2
2022/05/17 00:01:43;;;;;;;13.02;6.20;;;435.90;2355.20;;;;;;5115356;28;20034;-82
2022/05/17 00:04:09;;;;;;;9.63;5.70;;;435.90;2355.20;;;;;;5115514;28;20059;-82
2022/05/17 00:06:35;;;;;;;13.40;5.60;;;435.90;2355.20;;;;;;5115622;28;20069;-82
2022/05/17 00:09:01;;;;;;;9.00;5.72;;;435.90;2355.20;;;;;;5115289;28;20028;-80
2022/05/17 00:11:28;;;;;;;11.23;5.55;;;435.90;2355.20;;;;;;5115429;28;20450;-80
2022/05/17 00:13:54;;;;;;;9.10;6.25;;;435.90;2355.20;;;;;;5115100;28;20027;-80
2022/05/17 00:16:20;;;;;;;8.88;5.70;;;435.70;2355.20;;;;;;5114583;28;20027;-80
2022/05/17 00:18:47;;;;;;;8.38;5.57;;;435.80;2355.20;;;;;;5115346;28;20041;-80
2022/05/17 00:21:13;;;;;;;7.43;4.82;;;435.60;2355.20;;;;;;5115208;28;20023;-80
2022/05/17 00:23:39;;;;;;;7.75;5.35;;;435.70;2355.20;;;;;;5114858;28;20446;-81
2022/05/17 00:26:06;;;;;;;9.35;5.13;;;435.80;2355.20;;;;;;5114798;28;20051;-82
2022/05/17 00:28:33;;;;;;;10.70;5.90;;;435.80;2355.20;;;;;;5115088;28;20031;-82
2022/05/17 00:31:00;;;;;;;8.73;5.07;;;460.80;2380.80;;;;;;5114756;27;20024;-82
2022/05/17 00:33:27;;;;;;;10.43;6.05;;;436.10;2355.20;;;;;;5115009;28;20019;-81
2022/05/17 00:35:53;;;;;;;14.68;6.18;;;410.50;2355.20;;;;;;5114893;28;20023;-82
2022/05/17 00:38:19;;;;;;;8.77;5.82;;;410.30;2355.20;;;;;;5114609;28;20420;-80
2022/05/17 00:40:45;;;;;;;12.60;6.30;;;410.30;2355.20;;;;;;5115685;28;20020;-81
2022/05/17 00:43:20;;;;;;;9.82;6.15;;;410.40;2355.20;;;;;;5114506;28;20035;-80
2022/05/17 00:45:49;;;;;;;11.25;6.38;;;435.30;2355.20;;;;;;5114565;28;20131;-79
2022/05/17 00:48:17;;;;;;;13.10;5.63;;;435.40;2355.20;;;;;;5114945;28;20424;-79
2022/05/17 00:50:46;;;;;;;12.93;6.45;;;435.50;2355.20;;;;;;5114251;28;20020;-80
2022/05/17 00:53:26;;;;;;;12.00;6.65;;;435.60;2355.20;;;;;;5114636;28;20027;-80
2022/05/17 00:56:01;;;;;;;10.95;5.20;;;435.60;2355.20;;;;;;5115744;28;20024;-82
2022/05/17 00:58:43;;;;;;;10.52;5.88;;;435.60;2355.20;;;;;;5114023;28;20068;-82
2022/05/17 01:01:19;;;;;;;9.55;5.65;;;435.60;2355.20;;;;;;5115540;28;20016;-82
2022/05/17 01:03:48;;;;;;;13.38;5.65;;;435.60;2355.20;;;;;;5114147;28;20024;-82
2022/05/17 01:06:16;;;;;;;10.32;5.97;;;435.30;2355.20;;;;;;5113934;28;20042;-81
2022/05/17 01:08:42;;;;;;;8.60;5.18;;;435.30;2355.20;;;;;;5114241;28;20378;-82
2022/05/17 01:11:08;;;;;;;7.63;5.00;;;435.30;2355.20;;;;;;5114310;28;20511;-82
2022/05/17 01:16:19;;;;;;;8.07;5.50;;;410.50;2355.20;;;;;;5115232;28;20038;-82
2022/05/17 01:18:45;;;;;;;10.00;5.07;;;435.30;2355.20;;;;;;5113739;28;20028;-81
2022/05/17 01:21:12;;;;;;;8.82;4.80;;;435.30;2355.20;;;;;;5115397;28;20446;-82
2022/05/17 01:23:38;;;;;;;10.02;4.95;;;435.30;2355.20;;;;;;5114052;28;20478;-82
2022/05/17 01:26:06;;;;;;;10.60;5.10;;;435.50;2355.20;;;;;;5113184;28;20048;-81
2022/05/17 01:28:36;;;;;;;8.75;5.05;;;435.60;2355.20;;;;;;5113946;28;20073;-81
2022/05/17 01:31:05;;;;;;;11.20;5.57;;;435.50;2355.20;;;;;;5113972;28;20129;-82
2022/05/17 01:33:33;;;;;;;10.63;5.95;;;435.40;2355.20;;;;;;5113599;28;20123;-81
2022/05/17 01:36:00;;;;;;;11.40;5.40;;;435.50;2355.20;;;;;;5113713;28;20027;-82
2022/05/17 01:38:27;;;;;;;12.90;5.63;;;435.30;2355.20;;;;;;5113739;28;20026;-82
2022/05/17 01:40:53;;;;;;;9.35;5.20;;;435.30;2355.20;;;;;;5113348;28;20054;-82
2022/05/17 01:43:18;;;;;;;12.73;6.03;;;410.50;2355.20;;;;;;5113641;28;20051;-82
2022/05/17 01:45:44;;;;;;;7.90;5.18;;;410.30;2355.20;;;;;;5113475;28;20039;-81
2022/05/17 01:48:10;;;;;;;9.73;5.45;;;410.30;2355.20;;;;;;5113280;28;20020;-83
2022/05/17 01:50:36;;;;;;;9.65;5.32;;;410.30;2355.20;;;;;;5114800;28;20486;-80
2022/05/17 01:53:03;;;;;;;11.88;5.95;;;410.50;2355.20;;;;;;5112820;28;20030;-81
2022/05/17 01:55:29;;;;;;;14.07;6.10;;;410.20;2355.20;;;;;;5113149;28;20020;-81
2022/05/17 01:57:55;;;;;;;15.30;7.15;;;435.20;2355.20;;;;;;5113256;28;20035;-80
2022/05/17 02:00:23;;;;;;;12.35;6.05;;;435.20;2355.20;;;;;;5113398;28;20020;-80
2022/05/17 02:02:50;;;;;;;11.30;6.05;;;410.30;2355.20;;;;;;5112977;28;20024;-80
2022/05/17 02:05:17;;;;;;;10.32;5.93;;;410.30;2355.20;;;;;;5114222;28;20024;-81
2022/05/17 02:07:44;;;;;;;9.55;5.72;;;410.20;2355.20;;;;;;5112906;28;20119;-80
2022/05/17 02:10:10;;;;;;;11.02;6.93;;;410.00;2355.20;;;;;;5113295;28;20561;-83
2022/05/17 02:12:36;;;;;;;22.23;12.98;;;409.90;2355.20;;;;;;5113308;28;20462;-81
2022/05/17 02:15:06;;;;;;;25.00;12.63;;;384.90;2329.60;;;;;;5112868;28;20054;-84
2022/05/17 02:17:32;;;;;;;16.90;10.55;;;384.90;2329.60;;;;;;5113059;27;20508;-83
2022/05/17 02:19:59;;;;;;;15.90;8.35;;;409.60;2355.20;;;;;;5113064;28;20032;-83
2022/05/17 02:22:25;;;;;;;12.10;8.20;;;384.90;2329.60;;;;;;5112740;28;20028;-81
2022/05/17 02:24:51;;;;;;;13.48;6.97;;;384.90;2329.60;;;;;;5112900;28;20047;-81
2022/05/17 02:27:17;;;;;;;11.20;7.07;;;384.90;2329.60;;;;;;5113015;28;20075;-82
2022/05/17 02:29:44;;;;;;;9.15;6.43;;;409.60;2355.20;;;;;;5112671;28;20451;-81
2022/05/17 02:32:11;;;;;;;10.65;6.80;;;384.90;2329.60;;;;;;5112954;28;20515;-80
2022/05/17 02:34:36;;;;;;;13.57;7.05;;;384.90;2329.60;;;;;;5112931;28;20020;-81
2022/05/17 02:37:04;;;;;;;12.57;7.97;;;384.60;2329.60;;;;;;5112658;28;20035;-81
2022/05/17 02:39:30;;;;;;;14.15;6.28;;;384.60;2329.60;;;;;;5113174;28;20027;-82
2022/05/17 02:41:56;;;;;;;9.52;5.82;;;384.70;2329.60;;;;;;5112866;28;20024;-82
2022/05/17 02:44:21;;;;;;;9.75;7.00;;;384.70;2329.60;;;;;;5112582;28;20493;-83
2022/05/17 02:46:47;;;;;;;9.90;6.30;;;384.40;2329.60;;;;;;5112595;28;20035;-82
2022/05/17 02:49:13;;;;;;;10.60;6.05;;;384.20;2329.60;;;;;;5112702;28;20063;-82
2022/05/17 02:51:39;;;;;;;12.63;6.63;;;384.30;2329.60;;;;;;5113501;28;20383;-81
2022/05/17 02:54:07;;;;;;;10.02;6.15;;;384.50;2329.60;;;;;;5112819;28;20027;-81
2022/05/17 02:56:36;;;;;;;9.52;6.18;;;384.50;2329.60;;;;;;5112263;28;20111;-80
2022/05/17 02:59:02;;;;;;;15.45;7.10;;;384.60;2329.60;;;;;;5113763;28;20022;-82
2022/05/17 03:01:28;;;;;;;10.52;6.93;;;384.60;2329.60;;;;;;5112365;28;20044;-81
2022/05/17 03:03:54;;;;;;;11.90;7.28;;;384.60;2329.60;;;;;;5115188;28;20023;-82
2022/05/17 03:06:20;;;;;;;13.55;8.35;;;384.70;2329.60;;;;;;5116042;28;20470;-81
2022/05/17 03:08:47;;;;;;;17.92;7.97;;;409.60;2355.20;;;;;;5117655;28;20051;-82
2022/05/17 03:11:13;;;;;;;13.10;8.10;;;384.60;2329.60;;;;;;5099396;28;20122;-82
2022/05/17 03:13:39;;;;;;;13.40;8.93;;;384.40;2329.60;;;;;;5116307;28;20024;-82
2022/05/17 03:16:05;;;;;;;15.85;8.57;;;384.70;2329.60;;;;;;5116131;27;20076;-82
2022/05/17 03:18:31;;;;;;;13.55;8.70;;;384.90;2329.60;;;;;;5115933;28;20023;-82
2022/05/17 03:20:57;;;;;;;12.18;8.55;;;384.60;2329.60;;;;;;5116485;28;20058;-81
2022/05/17 03:23:23;;;;;;;16.52;9.20;;;384.70;2329.60;;;;;;5116458;28;20030;-82
2022/05/17 03:25:49;;;;;;;16.08;10.18;;;384.60;2329.60;;;;;;5115748;28;20075;-81
2022/05/17 03:28:15;;;;;;;14.85;9.63;;;384.40;2329.60;;;;;;5116065;27;20019;-80
2022/05/17 03:30:42;;;;;;;15.88;9.90;;;384.20;2329.60;;;;;;5115985;28;20034;-83
2022/05/17 03:33:09;;;;;;;13.25;8.30;;;384.00;2329.60;;;;;;5115603;28;20028;-82
2022/05/17 03:35:35;;;;;;;12.15;8.35;;;359.20;2329.60;;;;;;5115844;28;20028;-83
2022/05/17 03:38:04;;;;;;;15.85;7.93;;;359.10;2329.60;;;;;;5115892;28;20019;-82
2022/05/17 03:40:30;;;;;;;12.20;7.18;;;359.20;2329.60;;;;;;5115537;28;20024;-82
2022/05/17 03:42:56;;;;;;;12.82;7.22;;;384.10;2329.60;;;;;;5115787;28;20483;-82
2022/05/17 03:45:22;;;;;;;18.13;8.52;;;384.10;2329.60;;;;;;5115967;28;20034;-81
2022/05/17 03:47:48;;;;;;;15.00;9.85;;;384.20;2329.60;;;;;;5115657;28;20097;-82
2022/05/17 03:50:14;;;;;;;15.15;9.82;;;384.10;2329.60;;;;;;5115978;28;20020;-81
2022/05/17 03:52:40;;;;;;;11.40;8.25;;;384.40;2329.60;;;;;;5115567;28;20030;-82
2022/05/17 03:55:08;;;;;;;15.82;7.75;;;384.20;2329.60;;;;;;5115484;28;20019;-82
2022/05/17 03:57:34;;;;;;;17.33;7.72;;;384.10;2329.60;;;;;;5116079;27;20035;-82
2022/05/17 04:00:01;;;;;;;11.52;7.55;;;384.40;2329.60;;;;;;5116376;28;20031;-81
2022/05/17 04:02:27;;;;;;;13.50;7.72;;;384.40;2329.60;;;;;;5116597;28;20028;-81
2022/05/17 04:04:54;;;;;;;12.65;7.40;;;384.40;2329.60;;;;;;5116300;28;20035;-82
2022/05/17 04:07:21;;;;;;;13.35;8.10;;;384.30;2329.60;;;;;;5115213;28;20032;-83
2022/05/17 04:09:47;;;;;;;12.93;8.48;;;384.00;2329.60;;;;;;5116814;28;20035;-81
2022/05/17 04:12:13;;;;;;;16.73;8.18;;;359.20;2329.60;;;;;;5115469;28;20023;-82
2022/05/17 04:14:40;;;;;;;14.52;8.55;;;359.20;2329.60;;;;;;5114310;28;20073;-82
2022/05/17 04:17:06;;;;;;;14.98;6.78;;;359.10;2329.60;;;;;;5114954;28;20118;-83
2022/05/17 04:19:32;;;;;;;12.40;7.60;;;384.00;2329.60;;;;;;5115082;28;20030;-80
2022/05/17 04:22:00;;;;;;;17.63;6.82;;;384.00;2329.60;;;;;;5114718;28;20031;-81
2022/05/17 04:24:27;;;;;;;15.98;6.95;;;384.30;2329.60;;;;;;5115035;28;20028;-82
2022/05/17 04:26:53;;;;;;;13.57;7.18;;;384.10;2329.60;;;;;;5115145;28;20126;-82
2022/05/17 04:29:19;;;;;;;16.70;7.43;;;384.80;2329.60;;;;;;5115009;28;20119;-81
2022/05/17 04:31:46;;;;;;;18.98;8.82;;;384.60;2329.60;;;;;;5115196;28;20580;-83
2022/05/17 04:34:14;;;;;;;15.85;6.80;;;384.70;2329.60;;;;;;5116025;28;20027;-82
2022/05/17 04:36:40;;;;;;;14.43;6.90;;;384.70;2329.60;;;;;;5114537;28;20027;-82
2022/05/17 04:39:06;;;;;;;14.93;9.65;;;384.60;2329.60;;;;;;5114676;28;20059;-83
2022/05/17 04:41:32;;;;;;;18.35;10.65;;;384.90;2329.60;;;;;;5114504;28;20032;-80
2022/05/17 04:44:01;;;;;;;17.85;8.70;;;409.70;2355.20;;;;;;5114582;28;20028;-82
2022/05/17 04:46:27;;;;;;;14.32;7.63;;;410.00;2355.20;;;;;;5114490;28;20055;-81
2022/05/17 04:48:53;;;;;;;15.38;7.72;;;409.60;2355.20;;;;;;5114269;28;20505;-82
2022/05/17 04:51:19;;;;;;;13.18;7.43;;;409.70;2355.20;;;;;;5114415;28;20020;-82
2022/05/17 04:53:45;;;;;;;12.55;6.72;;;409.70;2355.20;;;;;;5114675;28;20020;-82
2022/05/17 04:56:12;;;;;;;9.48;6.93;;;409.80;2355.20;;;;;;5114242;28;20024;-82
2022/05/17 04:58:38;;;;;;;15.65;8.02;;;409.90;2355.20;;;;;;5114503;28;20386;-82
2022/05/17 05:01:05;;;;;;;27.35;8.65;;;410.00;2355.20;;;;;;5114226;28;20096;-82
2022/05/17 05:03:31;;;;;;;20.95;10.35;;;410.00;2355.20;;;;;;5114316;28;20072;-83
2022/05/17 05:05:57;;;;;;;18.60;9.00;;;410.00;2355.20;;;;;;5114018;28;20417;-83
2022/05/17 05:08:23;;;;;;;9.85;7.60;;;410.00;2355.20;;;;;;5114205;28;20020;-82
2022/05/17 05:10:50;;;;;;;12.93;6.95;;;410.00;2355.20;;;;;;5113769;28;20499;-81
2022/05/17 05:13:17;;;;;;;16.98;6.60;;;410.10;2355.20;;;;;;5114037;28;20462;-82
2022/05/17 05:15:43;;;;;;;11.05;6.97;;;410.00;2355.20;;;;;;5114366;28;20031;-82
2022/05/17 05:18:10;;;;;;;15.18;7.10;;;410.20;2355.20;;;;;;5113801;28;20130;-82
2022/05/17 05:20:38;;;;;;;12.10;7.00;;;410.20;2355.20;;;;;;5114278;28;20034;-81
2022/05/17 05:23:05;;;;;;;10.43;6.00;;;410.20;2355.20;;;;;;5114086;28;20031;-82
2022/05/17 05:25:32;;;;;;;12.05;6.55;;;410.50;2355.20;;;;;;5113285;28;20044;-81
2022/05/17 05:27:58;;;;;;;14.10;6.18;;;410.50;2355.20;;;;;;5113305;28;20126;-83
2022/05/17 05:30:24;;;;;;;12.20;8.00;;;435.20;2355.20;;;;;;5114150;28;20046;-83
2022/05/17 05:32:50;;;;;;;10.75;6.40;;;435.30;2355.20;;;;;;5113719;28;20455;-82
2022/05/17 05:35:20;;;;;;;14.70;7.15;;;435.30;2355.20;;;;;;5113807;28;20024;-82
2022/05/17 05:37:46;;;;;;;13.10;6.85;;;435.30;2355.20;;;;;;5113441;28;20024;-80
2022/05/17 05:40:13;;;;;;;14.45;7.38;;;435.30;2355.20;;;;;;5113712;28;20024;-82
2022/05/17 05:42:40;;;;;;;17.50;7.32;;;435.40;2355.20;;;;;;5113702;28;20019;-83
2022/05/17 05:45:07;;;;;;;15.45;8.10;;;460.80;2380.80;;;;;;5113475;28;20023;-82
2022/05/17 05:47:33;;;;;;;14.05;6.60;;;435.60;2355.20;;;;;;5113442;27;20084;-81
2022/05/17 05:49:59;;;;;;;19.33;7.53;;;435.80;2355.20;;;;;;5114838;28;20032;-82
2022/05/17 05:52:25;;;;;;;11.57;6.55;;;435.80;2355.20;;;;;;5113467;28;20059;-81
2022/05/17 05:54:51;;;;;;;13.45;6.70;;;435.90;2355.20;;;;;;5113453;28;20510;-82
2022/05/17 05:57:17;;;;;;;12.88;6.50;;;435.90;2355.20;;;;;;5113527;28;20070;-83
2022/05/17 05:59:43;;;;;;;10.70;6.80;;;435.90;2355.20;;;;;;5113136;28;20024;-83
2022/05/17 06:02:11;;;;;;;13.73;7.22;;;436.10;2355.20;;;;;;5113318;28;20092;-79
2022/05/17 06:04:38;;;;;;;13.32;7.20;;;460.80;2380.80;;;;;;5113424;28;20108;-81
2022/05/17 06:07:04;;;;;;;12.77;6.63;;;460.90;2380.80;;;;;;5112992;27;20031;-80
2022/05/17 06:09:31;;;;;;;12.07;6.55;;;436.10;2355.20;;;;;;5113309;28;20023;-81
2022/05/17 06:11:57;;;;;;;13.93;7.00;;;461.20;2380.80;;;;;;5113322;28;20473;-81
2022/05/17 06:14:23;;;;;;;18.92;7.40;;;461.30;2380.80;;;;;;5112857;28;20101;-82
2022/05/17 06:16:50;;;;;;;12.00;6.68;;;461.40;2380.80;;;;;;5112955;28;20032;-82
2022/05/17 06:19:16;;;;;;;11.55;6.75;;;461.50;2380.80;;;;;;5113180;28;20453;-82
2022/05/17 06:21:43;;;;;;;10.68;6.00;;;461.70;2380.80;;;;;;5112838;28;20054;-79
2022/05/17 06:24:09;;;;;;;16.60;6.22;;;486.50;2380.80;;;;;;5113309;28;20054;-80
2022/05/17 06:26:35;;;;;;;12.95;5.93;;;486.60;2380.80;;;;;;5112616;28;20087;-80
2022/05/17 06:29:00;;;;;;;14.25;5.93;;;486.70;2380.80;;;;;;5113100;28;20020;-80
2022/05/17 06:31:26;;;;;;;14.45;6.25;;;486.80;2380.80;;;;;;5112940;28;20030;-80
2022/05/17 06:33:52;;;;;;;13.02;6.18;;;487.00;2380.80;;;;;;5112724;28;20028;-80
2022/05/17 06:36:18;;;;;;;12.18;6.75;;;487.10;2380.80;;;;;;5112943;28;20027;-79
2022/05/17 06:38:44;;;;;;;12.55;6.95;;;487.30;2380.80;;;;;;5114381;28;20030;-79
2022/05/17 06:41:09;;;;;;;18.65;5.95;;;487.30;2380.80;;;;;;5113678;28;20055;-79
2022/05/17 06:43:35;;;;;;;12.32;6.40;;;512.00;2380.80;;;;;;5114569;28;20026;-78
2022/05/17 06:46:02;;;;;;;10.95;5.70;;;512.10;2380.80;;;;;;5112814;28;20375;-78
2022/05/17 06:48:29;;;;;;;10.75;5.75;;;512.10;2380.80;;;;;;5112562;28;20032;-77
2022/05/17 06:51:02;;;;;;;11.48;6.18;;;512.40;2380.80;;;;;;5112964;28;20023;-77
2022/05/17 06:53:29;;;;;;;9.55;5.97;;;512.60;2380.80;;;;;;5113070;28;20387;-77
2022/05/17 06:55:55;;;;;;;10.18;5.57;;;512.60;2380.80;;;;;;5113827;28;20031;-77
2022/05/17 06:58:20;;;;;;;11.55;5.68;;;512.70;2380.80;;;;;;5112814;28;20030;-78
2022/05/17 07:00:46;;;;;;;11.90;5.30;;;512.90;2380.80;;;;;;5112863;28;20374;-77
2022/05/17 07:03:12;;;;;;;9.25;4.80;;;537.70;2406.40;;;;;;5112647;28;20379;-77
2022/05/17 07:05:37;;;;;;;11.18;5.57;;;537.80;2406.40;;;;;;5114270;28;20030;-78
2022/05/17 07:08:03;;;;;;;14.18;5.22;;;538.00;2406.40;;;;;;5113857;28;20034;-77
2022/05/17 07:13:13;;;;;;;12.32;5.00;;;538.10;2380.80;;;;;;5114009;28;20066;-78
2022/05/17 07:15:44;;;;;;;8.52;5.00;;;538.20;2380.80;;;;;;5112540;28;20064;-77
2022/05/17 07:18:12;;;;;;;9.82;4.93;;;563.20;2380.80;;;;;;5112641;28;20034;-78
2022/05/17 07:20:38;;;;;;;8.88;4.20;;;563.50;2329.60;;;;;;5112688;28;20024;-78
2022/05/17 07:23:05;;;;;;;10.85;4.05;;;563.60;2278.40;;;;;;5112389;28;20047;-77
2022/05/17 07:25:33;;;;;;;8.77;4.95;;;563.60;2304.00;;;;;;5113883;28;20048;-77
2022/05/17 07:27:59;;;;;;;10.77;5.60;;;563.90;2304.00;;;;;;5112538;28;20089;-78
2022/05/17 07:30:25;;;;;;;10.80;5.30;;;564.00;2278.40;;;;;;5112188;28;20055;-78
2022/05/17 07:32:51;;;;;;;13.48;5.05;;;563.90;2252.80;;;;;;5112780;28;20024;-78
2022/05/17 07:35:17;;;;;;;12.27;5.60;;;564.10;2227.20;;;;;;5115734;28;20019;-75
2022/05/17 07:37:43;;;;;;;11.18;5.15;;;588.90;2201.60;;;;;;5117968;28;20031;-76
2022/05/17 07:40:12;;;;;;;13.05;4.55;;;589.10;2150.40;;;;;;5113183;28;20023;-78
2022/05/17 07:42:39;;;;;;;9.45;4.68;;;589.10;2124.80;;;;;;5117350;28;20048;-76
2022/05/17 07:45:06;;;;;;;8.75;4.65;;;589.20;2124.80;;;;;;5115027;28;20028;-76
2022/05/17 07:47:33;;;;;;;15.57;4.78;;;589.10;2099.20;;;;;;5112217;28;20124;-77
2022/05/17 07:49:59;;;;;;;10.13;4.50;;;588.90;2099.20;;;;;;5114824;28;20425;-77
2022/05/17 07:52:25;;;;;;;11.40;4.50;;;589.30;2099.20;;;;;;5117448;28;20016;-78
2022/05/17 07:54:51;;;;;;;10.65;4.82;;;589.50;2073.60;;;;;;5117385;28;20107;-77
2022/05/17 07:57:19;;;;;;;9.57;3.90;;;589.50;2073.60;;;;;;5115435;28;20027;-76
2022/05/17 07:59:44;;;;;;;8.73;4.95;;;589.50;2073.60;;;;;;5116511;27;20019;-77
2022/05/17 08:02:11;;;;;;;13.98;4.78;;;589.60;2048.00;;;;;;5116220;28;20072;-78
2022/05/17 08:04:36;;;;;;;8.63;4.53;;;614.50;2022.40;;;;;;5116641;28;20019;-77
2022/05/17 08:07:02;;;;;;;11.90;4.20;;;614.40;2022.40;;;;;;5116857;27;20038;-77
2022/05/17 08:09:28;;;;;;;10.65;4.47;;;614.60;2022.40;;;;;;5116492;28;20039;-77
2022/05/17 08:11:54;;;;;;;8.05;4.07;;;614.90;1971.20;;;;;;5116460;28;20024;-77
2022/05/17 08:14:21;;;;;;;10.27;3.88;;;614.90;1971.20;;;;;;5115628;28;20363;-77
2022/05/17 08:16:47;;;;;;;8.02;4.28;;;615.10;1945.60;;;;;;5115806;28;20024;-77
2022/05/17 08:19:13;;;;;;;13.18;4.82;;;615.30;1945.60;;;;;;5115029;28;20383;-77
2022/05/17 08:21:39;;;;;;;8.85;4.28;;;640.00;1920.00;;;;;;5116249;28;20027;-77
2022/05/17 08:24:06;;;;;;;8.23;5.03;;;640.20;1945.60;;;;;;5115265;28;20709;-76
2022/05/17 08:29:16;;;;;;;8.27;4.63;;;640.80;1894.40;;;;;;5116469;28;20485;-77
2022/05/17 08:31:42;;;;;;;12.88;4.00;;;640.90;1894.40;;;;;;5116047;28;20027;-74
2022/05/17 08:34:08;;;;;;;10.07;5.05;;;640.80;1868.80;;;;;;5114785;28;20068;-75
2022/05/17 08:36:35;;;;;;;16.85;4.85;;;665.80;1894.40;;;;;;5115990;28;20034;-75
2022/05/17 08:39:01;;;;;;;8.73;4.32;;;666.20;1868.80;;;;;;5115218;28;20028;-79
2022/05/17 08:41:39;;;;;;;10.10;4.63;;;666.40;1843.20;;;;;;5115377;28;20076;-78
2022/05/17 08:44:15;;;;;;;10.63;4.60;;;666.40;1817.60;;;;;;5116740;28;20034;-78
2022/05/17 08:47:11;;;;;;;10.57;4.28;;;666.30;1817.60;;;;;;5114978;28;20050;-80
2022/05/17 08:49:56;;;;;;;9.40;5.00;;;691.20;1792.00;;;;;;5115685;28;20024;-79
2022/05/17 08:52:24;;;;;;;9.90;4.55;;;666.50;1792.00;;;;;;5115530;28;20023;-80
2022/05/17 08:54:58;;;;;;;13.68;4.30;;;691.30;1792.00;;;;;;5114692;28;20458;-79
2022/05/17 08:57:37;;;;;;;11.32;4.95;;;691.30;1766.40;;;;;;5115401;28;20028;-78
2022/05/17 09:00:14;;;;;;;13.45;5.78;;;691.30;1766.40;;;;;;5114937;28;20032;-76
2022/05/17 09:02:42;;;;;;;12.32;6.38;;;691.40;1766.40;;;;;;5114702;28;20023;-78
2022/05/17 09:05:14;;;;;;;10.65;5.22;;;691.80;1766.40;;;;;;5114980;28;20042;-77
2022/05/17 09:08:04;;;;;;;8.95;5.03;;;691.50;1766.40;;;;;;5114354;28;20032;-79
2022/05/17 09:10:52;;;;;;;10.00;5.07;;;691.50;1740.80;;;;;;5114721;28;20027;-78
2022/05/17 09:13:34;;;;;;;12.50;5.20;;;691.70;1766.40;;;;;;5114752;28;20064;-79
2022/05/17 09:16:00;;;;;;;;;;;716.80;1766.40;;;;;;5114540;28;20027;-80
2022/05/17 09:18:29;;;;;;;13.95;5.53;;;717.10;1715.20;;;;;;5114238;28;20377;-79
2022/05/17 09:20:55;;;;;;;9.52;5.65;;;717.10;1715.20;;;;;;5114133;28;20110;-79
2022/05/17 09:23:21;;;;;;;10.10;4.82;;;716.90;1689.60;;;;;;5113921;27;20431;-78
2022/05/17 09:26:02;;;;;;;9.23;5.20;;;692.10;1689.60;;;;;;5115382;28;20138;-80
2022/05/17 09:28:44;;;;;;;19.77;5.25;;;717.00;1715.20;;;;;;5115554;28;20034;-78
2022/05/17 09:31:16;;;;;;;14.02;5.68;;;717.20;1689.60;;;;;;5114183;28;20076;-78
2022/05/17 09:33:42;;;;;;;10.70;4.40;;;717.70;1664.00;;;;;;5115027;28;20490;-80
2022/05/17 09:36:16;;;;;;;15.52;8.50;;;717.60;1638.40;;;;;;5113272;28;20122;-76
2022/05/17 09:38:42;;;;;;;11.18;5.38;;;742.60;1715.20;;;;;;5114017;28;20161;-80
2022/05/17 09:41:13;;;;;;;11.13;7.53;;;743.00;1689.60;;;;;;5113901;28;20023;-78
2022/05/17 09:43:44;;;;;;;15.18;9.10;;;743.20;1689.60;;;;;;5113483;28;20462;-79
2022/05/17 09:46:13;;;;;;;8.57;4.68;;;743.10;1638.40;;;;;;5113515;28;20115;-77
2022/05/17 09:54:35;;;;;;;6.80;3.88;;;768.10;1638.40;;;;;;5115132;28;20119;-79
2022/05/17 09:57:19;;;;;;;8.50;4.15;;;768.20;1612.80;;;;;;5115062;28;20038;-77
2022/05/17 09:59:46;;;;;;;7.60;3.88;;;743.30;1638.40;;;;;;5115477;28;20028;-78
2022/05/17 10:02:30;;;;;;;9.52;4.93;;;742.90;1638.40;;;;;;5113381;28;20084;-77
2022/05/17 10:05:20;;;;;;;6.47;4.03;;;768.00;1638.40;;;;;;5113244;28;20046;-79
2022/05/17 10:08:00;;;;;;;8.15;5.07;;;768.10;1638.40;;;;;;5112786;28;20457;-80
2022/05/17 10:10:32;;;;;;;8.85;5.05;;;768.60;1612.80;;;;;;5118144;28;20023;-77
2022/05/17 10:13:29;;;;;;;6.47;3.65;;;793.60;1612.80;;;;;;5117603;28;20031;-78
2022/05/17 10:16:05;;;;;;;6.80;4.03;;;768.20;1612.80;;;;;;5105532;28;20024;-80
2022/05/17 10:18:48;;;;;;;9.30;4.07;;;768.00;1612.80;;;;;;5092781;28;20028;-79
2022/05/17 10:21:46;;;;;;;9.15;4.22;;;768.50;1612.80;;;;;;5092945;28;20093;-80
2022/05/17 10:24:21;;;;;;;14.73;10.70;;;793.70;1587.20;;;;;;5090728;28;20391;-78
2022/05/17 10:27:15;;;;;;;10.15;6.35;;;768.90;1561.60;;;;;;5092299;28;20086;-80
2022/05/17 10:29:46;;;;;;;6.47;3.13;;;793.80;1587.20;;;;;;5092825;28;20024;-81
2022/05/17 10:32:30;;;;;;;6.38;3.58;;;793.70;1561.60;;;;;;5092718;28;20037;-78
2022/05/17 10:35:04;;;;;;;11.52;4.05;;;793.70;1587.20;;;;;;5092674;28;20035;-77
2022/05/17 10:37:51;;;;;;;6.80;3.80;;;768.80;1612.80;;;;;;5109679;28;20032;-80
2022/05/17 10:40:30;;;;;;;13.80;3.47;;;768.60;1587.20;;;;;;5092299;28;20024;-81
2022/05/17 10:42:57;;;;;;;23.77;5.72;;;768.90;1612.80;;;;;;5093116;28;20056;-80
2022/05/17 10:45:32;;;;;;;13.27;7.28;;;794.20;1587.20;;;;;;5092875;28;20031;-81
2022/05/17 10:48:13;;;;;;;10.27;5.78;;;819.30;1587.20;;;;;;5093055;28;20391;-82
2022/05/17 10:51:01;;;;;;;16.55;6.70;;;819.40;1536.00;;;;;;5110286;28;20111;-87
2022/05/17 10:53:58;;;;;;;11.00;4.25;;;819.80;1536.00;;;;;;5109476;28;20047;-80
2022/05/17 10:56:33;;;;;;;10.20;4.65;;;820.10;1484.80;;;;;;5109482;28;20078;-79
2022/05/17 10:59:25;;;;;;;7.15;3.30;;;845.00;1484.80;;;;;;5093951;28;20032;-80
2022/05/17 11:02:18;;;;;;;6.07;3.25;;;845.00;1536.00;;;;;;5092441;28;20038;-81
2022/05/17 11:05:24;;;;;;;7.15;2.97;;;845.20;1484.80;;;;;;5109616;28;20020;-80
2022/05/17 11:08:02;;;;;;;5.53;3.17;;;844.90;1433.60;;;;;;5092444;28;20468;-80
2022/05/17 11:10:39;;;;;;;8.18;3.30;;;845.20;1433.60;;;;;;5109552;28;20024;-80
2022/05/17 11:13:29;;;;;;;7.15;3.25;;;845.20;1356.80;;;;;;5109452;28;20024;-79
2022/05/17 11:16:20;;;;;;;7.15;3.17;;;819.90;1331.20;;;;;;5092544;28;20053;-81
2022/05/17 11:18:55;;;;;;;6.93;2.72;;;844.90;1382.40;;;;;;5082849;28;20036;-81
2022/05/17 11:21:45;;;;;;;13.02;4.68;;;845.30;1382.40;;;;;;5093189;28;20375;-81
2022/05/17 11:24:39;;;;;;;6.45;2.65;;;845.20;1382.40;;;;;;5092141;28;20127;-79
2022/05/17 11:27:30;;;;;;;7.43;3.30;;;845.40;1382.40;;;;;;5113649;28;20123;-79
2022/05/17 11:30:14;;;;;;;8.73;3.55;;;845.60;1382.40;;;;;;5113315;28;20047;-80
2022/05/17 11:33:01;;;;;;;8.82;4.03;;;870.60;1382.40;;;;;;5096282;28;20059;-79
2022/05/17 11:35:26;;;;;;;9.20;4.25;;;870.70;1356.80;;;;;;5095584;28;20047;-81
2022/05/17 11:37:54;;;;;;;7.30;3.55;;;845.70;1356.80;;;;;;5113433;28;20525;-79
2022/05/17 11:40:47;;;;;;;10.75;4.18;;;845.00;1382.40;;;;;;5096540;28;20463;-81
2022/05/17 11:43:40;;;;;;;7.47;3.70;;;820.00;1356.80;;;;;;5112658;28;20073;-81
2022/05/17 11:46:24;;;;;;;15.23;4.00;;;820.10;1356.80;;;;;;5112926;28;20032;-79
2022/05/17 11:49:13;;;;;;;8.95;3.10;;;820.10;1382.40;;;;;;5112738;28;20028;-79
2022/05/17 11:52:00;;;;;;;6.07;3.30;;;820.10;1382.40;;;;;;5113348;28;20030;-79
2022/05/17 11:54:45;;;;;;;7.50;3.63;;;845.30;1382.40;;;;;;5092607;28;20047;-78
2022/05/17 11:57:17;;;;;;;7.47;3.28;;;845.40;1382.40;;;;;;5095223;28;20092;-78
2022/05/17 11:59:54;;;;;;;6.53;3.55;;;845.20;1382.40;;;;;;5112583;28;20028;-79
2022/05/17 12:02:20;;;;;;;8.73;3.55;;;845.70;1382.40;;;;;;5095714;28;20020;-79
2022/05/17 12:04:46;;;;;;;6.97;3.58;;;845.40;1382.40;;;;;;5094716;28;20028;-80
2022/05/17 12:07:25;;;;;;;8.80;3.97;;;845.70;1382.40;;;;;;5096271;28;20464;-82
2022/05/17 12:10:13;;;;;;;10.65;4.20;;;870.60;1356.80;;;;;;5095029;28;20035;-81
2022/05/17 12:13:02;;;;;;;6.88;4.03;;;871.00;1356.80;;;;;;5095467;28;20024;-81
2022/05/17 12:15:47;;;;;;;6.03;3.30;;;871.20;1331.20;;;;;;5095181;28;20115;-80
2022/05/17 12:18:22;;;;;;;10.25;3.42;;;871.00;1331.20;;;;;;5094929;28;20024;-80
2022/05/17 12:21:12;;;;;;;10.27;3.30;;;871.10;1331.20;;;;;;5111996;28;20414;-79
2022/05/17 12:23:48;;;;;;;7.68;3.20;;;870.90;1331.20;;;;;;5111779;28;20474;-81
2022/05/17 12:26:45;;;;;;;8.27;3.60;;;870.90;1331.20;;;;;;5094601;28;20048;-78
2022/05/17 12:32:04;;;;;;;8.65;3.15;;;870.40;1356.80;;;;;;5095955;28;20026;-78
2022/05/17 12:34:30;;;;;;;5.80;2.70;;;845.40;1356.80;;;;;;5094980;28;20050;-78
2022/05/17 12:37:12;;;;;;;9.25;3.80;;;845.30;1356.80;;;;;;5095708;28;20028;-78
2022/05/17 12:45:15;;;;;;;6.88;3.17;;;845.40;1356.80;;;;;;5095865;28;20027;-80
2022/05/17 12:47:50;;;;;;;6.60;3.97;;;845.70;1356.80;;;;;;5094551;28;20028;-80
2022/05/17 12:50:42;;;;;;;8.55;3.40;;;870.80;1331.20;;;;;;5094362;28;20020;-79